Carroll, Maryland
Current Conditions -  °F | °C
As of 9:54 AM on Friday 28 Nov 2014 (Local Time) from KBWI Reporting Station
Scattered Clouds Scattered Clouds  
Wind Chill: 30°   Ceiling: Unl
Heat Index: 37°   Visibility: 10mi
Dew Point: 20°   Wind: 10mph
Humidity: 50%   Direction: 310°NW
Pressure: 30.3"   Gusts: 18mph
Location:  39.2853°N, 76.6905°W
Report Text: KBWI 281454Z 31009G16KT 10SM SCT039 03/M07 A3030 RMK AO2 SLP261 T00281067 51019
Loading
Personal Weather Stations






























Interactive Weather Map New forecast layout! Learn more

10-Day Weather Forecast

Advertisements
Track Severe Weather on mobile